sensor_id;sensor_type;location;lat;lon;timestamp;temperature;humidity
2465;DHT22;1244;54.326;10.074;2023-01-01T00:00:39;12.90;99.90
2465;DHT22;1244;54.326;10.074;2023-01-01T00:03:05;12.90;99.90
2465;DHT22;1244;54.326;10.074;2023-01-01T00:05:31;12.70;99.90
2465;DHT22;1244;54.326;10.074;2023-01-01T00:07:56;12.50;99.90
2465;DHT22;1244;54.326;10.074;2023-01-01T00:10:22;12.50;99.90
2465;DHT22;1244;54.326;10.074;2023-01-01T00:12:53;12.50;99.90
2465;DHT22;1244;54.326;10.074;2023-01-01T00:15:19;12.40;99.90
2465;DHT22;1244;54.326;10.074;2023-01-01T00:17:45;12.40;99.90
2465;DHT22;1244;54.326;10.074;2023-01-01T00:20:11;12.40;99.90
2465;DHT22;1244;54.326;10.074;2023-01-01T00:22:37;12.50;99.90
2465;DHT22;1244;54.326;10.074;2023-01-01T00:25:03;12.70;99.90
2465;DHT22;1244;54.326;10.074;2023-01-01T00:27:29;12.80;99.90
2465;DHT22;1244;54.326;10.074;2023-01-01T00:29:54;12.90;99.90
2465;DHT22;1244;54.326;10.074;2023-01-01T00:32:20;12.80;99.90
2465;DHT22;1244;54.326;10.074;2023-01-01T00:34:45;12.80;99.90
2465;DHT22;1244;54.326;10.074;2023-01-01T00:37:11;12.90;99.90
2465;DHT22;1244;54.326;10.074;2023-01-01T00:39:37;12.90;99.90
2465;DHT22;1244;54.326;10.074;2023-01-01T00:42:02;12.90;99.90
2465;DHT22;1244;54.326;10.074;2023-01-01T00:44:28;13.10;99.90
2465;DHT22;1244;54.326;10.074;2023-01-01T00:46:53;13.00;99.90
2465;DHT22;1244;54.326;10.074;2023-01-01T00:49:19;13.00;99.90
2465;DHT22;1244;54.326;10.074;2023-01-01T00:51:44;13.00;99.90
2465;DHT22;1244;54.326;10.074;2023-01-01T00:54:10;13.10;99.90
2465;DHT22;1244;54.326;10.074;2023-01-01T00:56:35;13.10;99.90
2465;DHT22;1244;54.326;10.074;2023-01-01T00:59:01;13.20;99.90
2465;DHT22;1244;54.326;10.074;2023-01-01T01:01:26;13.10;99.90
2465;DHT22;1244;54.326;10.074;2023-01-01T01:03:52;13.20;99.90
2465;DHT22;1244;54.326;10.074;2023-01-01T01:06:17;13.20;99.90
2465;DHT22;1244;54.326;10.074;2023-01-01T01:08:45;13.30;99.90
2465;DHT22;1244;54.326;10.074;2023-01-01T01:11:16;13.40;99.90
2465;DHT22;1244;54.326;10.074;2023-01-01T01:13:43;13.40;99.90
2465;DHT22;1244;54.326;10.074;2023-01-01T01:16:29;13.40;99.90
2465;DHT22;1244;54.326;10.074;2023-01-01T01:18:57;13.50;99.90
2465;DHT22;1244;54.326;10.074;2023-01-01T01:21:25;13.50;99.90
2465;DHT22;1244;54.326;10.074;2023-01-01T01:23:51;13.50;99.90
2465;DHT22;1244;54.326;10.074;2023-01-01T01:26:21;13.30;99.90
2465;DHT22;1244;54.326;10.074;2023-01-01T01:28:47;13.40;99.90
2465;DHT22;1244;54.326;10.074;2023-01-01T01:31:13;13.50;99.90
2465;DHT22;1244;54.326;10.074;2023-01-01T01:33:38;13.50;99.90
2465;DHT22;1244;54.326;10.074;2023-01-01T01:36:05;13.60;99.90
2465;DHT22;1244;54.326;10.074;2023-01-01T01:38:31;13.50;99.90
2465;DHT22;1244;54.326;10.074;2023-01-01T01:40:57;13.50;99.90
2465;DHT22;1244;54.326;10.074;2023-01-01T01:43:49;13.50;99.90
2465;DHT22;1244;54.326;10.074;2023-01-01T01:46:16;13.40;99.90
2465;DHT22;1244;54.326;10.074;2023-01-01T01:48:48;13.60;99.90
2465;DHT22;1244;54.326;10.074;2023-01-01T01:51:37;13.50;99.90
2465;DHT22;1244;54.326;10.074;2023-01-01T01:54:10;13.60;99.90
2465;DHT22;1244;54.326;10.074;2023-01-01T01:56:48;13.70;99.90
2465;DHT22;1244;54.326;10.074;2023-01-01T01:59:17;13.70;99.90
2465;DHT22;1244;54.326;10.074;2023-01-01T02:01:43;13.60;99.90
2465;DHT22;1244;54.326;10.074;2023-01-01T02:04:09;13.70;99.90
2465;DHT22;1244;54.326;10.074;2023-01-01T02:06:37;13.70;99.90
2465;DHT22;1244;54.326;10.074;2023-01-01T02:09:05;13.70;99.90
2465;DHT22;1244;54.326;10.074;2023-01-01T02:11:31;13.60;99.90
2465;DHT22;1244;54.326;10.074;2023-01-01T02:13:58;13.60;99.90
2465;DHT22;1244;54.326;10.074;2023-01-01T02:16:38;13.60;99.90
2465;DHT22;1244;54.326;10.074;2023-01-01T02:19:28;13.70;99.90
2465;DHT22;1244;54.326;10.074;2023-01-01T02:22:16;13.70;99.90
2465;DHT22;1244;54.326;10.074;2023-01-01T02:25:12;13.70;99.90
2465;DHT22;1244;54.326;10.074;2023-01-01T02:30:13;13.70;99.90
2465;DHT22;1244;54.326;10.074;2023-01-01T02:32:44;13.70;99.90
2465;DHT22;1244;54.326;10.074;2023-01-01T02:35:16;13.70;99.90
2465;DHT22;1244;54.326;10.074;2023-01-01T02:38:10;13.70;99.90
2465;DHT22;1244;54.326;10.074;2023-01-01T02:40:41;13.60;99.90
2465;DHT22;1244;54.326;10.074;2023-01-01T02:43:08;13.60;99.90
2465;DHT22;1244;54.326;10.074;2023-01-01T02:45:34;13.60;99.90
2465;DHT22;1244;54.326;10.074;2023-01-01T02:51:04;13.60;99.90
2465;DHT22;1244;54.326;10.074;2023-01-01T02:53:36;13.60;99.90
2465;DHT22;1244;54.326;10.074;2023-01-01T02:56:09;13.60;99.90
2465;DHT22;1244;54.326;10.074;2023-01-01T02:58:56;13.70;99.90
2465;DHT22;1244;54.326;10.074;2023-01-01T03:01:56;13.60;99.90
2465;DHT22;1244;54.326;10.074;2023-01-01T03:04:34;13.70;99.90
2465;DHT22;1244;54.326;10.074;2023-01-01T03:07:13;13.70;99.90
2465;DHT22;1244;54.326;10.074;2023-01-01T03:09:42;13.70;99.90
2465;DHT22;1244;54.326;10.074;2023-01-01T03:12:37;13.60;99.90
2465;DHT22;1244;54.326;10.074;2023-01-01T03:15:56;13.70;99.90
2465;DHT22;1244;54.326;10.074;2023-01-01T03:18:18;13.70;99.90
2465;DHT22;1244;54.326;10.074;2023-01-01T03:20:49;13.60;99.90
2465;DHT22;1244;54.326;10.074;2023-01-01T03:23:19;13.60;99.90
2465;DHT22;1244;54.326;10.074;2023-01-01T03:25:49;13.60;99.90
2465;DHT22;1244;54.326;10.074;2023-01-01T03:28:20;13.60;99.90
2465;DHT22;1244;54.326;10.074;2023-01-01T03:30:49;13.70;99.90
2465;DHT22;1244;54.326;10.074;2023-01-01T03:33:20;13.70;99.90
2465;DHT22;1244;54.326;10.074;2023-01-01T03:35:58;13.70;99.90
2465;DHT22;1244;54.326;10.074;2023-01-01T03:38:33;13.70;99.90
2465;DHT22;1244;54.326;10.074;2023-01-01T03:41:05;13.70;99.90
2465;DHT22;1244;54.326;10.074;2023-01-01T03:43:48;13.60;99.90
2465;DHT22;1244;54.326;10.074;2023-01-01T03:46:16;13.50;99.90
2465;DHT22;1244;54.326;10.074;2023-01-01T03:48:44;13.40;99.90
2465;DHT22;1244;54.326;10.074;2023-01-01T03:57:20;13.10;99.90
2465;DHT22;1244;54.326;10.074;2023-01-01T04:00:10;12.90;99.90
2465;DHT22;1244;54.326;10.074;2023-01-01T04:02:59;12.80;99.90
2465;DHT22;1244;54.326;10.074;2023-01-01T04:05:27;12.60;99.90
2465;DHT22;1244;54.326;10.074;2023-01-01T04:07:54;12.50;99.90
2465;DHT22;1244;54.326;10.074;2023-01-01T04:10:21;12.40;99.90
2465;DHT22;1244;54.326;10.074;2023-01-01T04:12:52;12.20;99.90
2465;DHT22;1244;54.326;10.074;2023-01-01T04:15:22;12.10;99.90
2465;DHT22;1244;54.326;10.074;2023-01-01T04:17:49;11.90;99.90
2465;DHT22;1244;54.326;10.074;2023-01-01T04:20:15;11.90;99.90
2465;DHT22;1244;54.326;10.074;2023-01-01T04:22:41;11.80;99.90
2465;DHT22;1244;54.326;10.074;2023-01-01T04:25:07;11.70;99.90
2465;DHT22;1244;54.326;10.074;2023-01-01T04:27:33;11.70;99.90
2465;DHT22;1244;54.326;10.074;2023-01-01T04:29:59;11.70;99.90
2465;DHT22;1244;54.326;10.074;2023-01-01T04:32:24;11.60;99.90
2465;DHT22;1244;54.326;10.074;2023-01-01T04:34:50;11.70;99.90
2465;DHT22;1244;54.326;10.074;2023-01-01T04:37:15;11.60;99.90
2465;DHT22;1244;54.326;10.074;2023-01-01T04:39:41;11.60;99.90
2465;DHT22;1244;54.326;10.074;2023-01-01T04:42:07;11.60;99.90
2465;DHT22;1244;54.326;10.074;2023-01-01T04:44:33;11.70;99.90
2465;DHT22;1244;54.326;10.074;2023-01-01T04:46:58;11.70;99.90
2465;DHT22;1244;54.326;10.074;2023-01-01T04:49:24;11.70;99.90
2465;DHT22;1244;54.326;10.074;2023-01-01T04:51:49;11.70;99.90
2465;DHT22;1244;54.326;10.074;2023-01-01T04:54:14;11.80;99.90
2465;DHT22;1244;54.326;10.074;2023-01-01T04:56:40;11.80;99.90
2465;DHT22;1244;54.326;10.074;2023-01-01T04:59:05;11.90;99.90
2465;DHT22;1244;54.326;10.074;2023-01-01T05:01:31;12.00;99.90
2465;DHT22;1244;54.326;10.074;2023-01-01T05:03:57;12.00;99.90
2465;DHT22;1244;54.326;10.074;2023-01-01T05:06:23;12.10;99.90
2465;DHT22;1244;54.326;10.074;2023-01-01T05:08:51;12.20;99.90
2465;DHT22;1244;54.326;10.074;2023-01-01T05:11:22;12.20;99.90
2465;DHT22;1244;54.326;10.074;2023-01-01T05:13:50;12.30;99.90
2465;DHT22;1244;54.326;10.074;2023-01-01T05:16:18;12.20;99.90
2465;DHT22;1244;54.326;10.074;2023-01-01T05:18:44;12.20;99.90
2465;DHT22;1244;54.326;10.074;2023-01-01T05:21:15;12.20;99.90
2465;DHT22;1244;54.326;10.074;2023-01-01T05:23:41;12.10;99.90
2465;DHT22;1244;54.326;10.074;2023-01-01T05:26:11;12.10;99.90
2465;DHT22;1244;54.326;10.074;2023-01-01T05:28:38;12.00;99.90
2465;DHT22;1244;54.326;10.074;2023-01-01T05:31:06;11.90;99.90
2465;DHT22;1244;54.326;10.074;2023-01-01T05:33:32;11.90;99.90
2465;DHT22;1244;54.326;10.074;2023-01-01T05:35:58;11.80;99.90
2465;DHT22;1244;54.326;10.074;2023-01-01T05:38:23;11.90;99.90
2465;DHT22;1244;54.326;10.074;2023-01-01T05:40:49;11.80;99.90
2465;DHT22;1244;54.326;10.074;2023-01-01T05:43:16;11.90;99.90
2465;DHT22;1244;54.326;10.074;2023-01-01T05:45:42;11.90;99.90
2465;DHT22;1244;54.326;10.074;2023-01-01T05:48:09;12.00;99.90
2465;DHT22;1244;54.326;10.074;2023-01-01T05:50:34;12.00;99.90
2465;DHT22;1244;54.326;10.074;2023-01-01T05:53:00;12.10;99.90
2465;DHT22;1244;54.326;10.074;2023-01-01T05:55:25;12.20;99.90
2465;DHT22;1244;54.326;10.074;2023-01-01T05:57:51;12.10;99.90
2465;DHT22;1244;54.326;10.074;2023-01-01T06:00:17;12.10;99.90
2465;DHT22;1244;54.326;10.074;2023-01-01T06:02:42;12.20;99.90
2465;DHT22;1244;54.326;10.074;2023-01-01T06:05:08;12.20;99.90
2465;DHT22;1244;54.326;10.074;2023-01-01T06:07:33;12.30;99.90
2465;DHT22;1244;54.326;10.074;2023-01-01T06:09:59;12.20;99.90
2465;DHT22;1244;54.326;10.074;2023-01-01T06:12:24;12.20;99.90
2465;DHT22;1244;54.326;10.074;2023-01-01T06:14:50;12.30;99.90
2465;DHT22;1244;54.326;10.074;2023-01-01T06:17:15;12.20;99.90
2465;DHT22;1244;54.326;10.074;2023-01-01T06:19:41;12.20;99.90
2465;DHT22;1244;54.326;10.074;2023-01-01T06:22:06;12.30;99.90
2465;DHT22;1244;54.326;10.074;2023-01-01T06:24:32;12.30;99.90
2465;DHT22;1244;54.326;10.074;2023-01-01T06:26:57;12.20;99.90
2465;DHT22;1244;54.326;10.074;2023-01-01T06:29:23;12.30;99.90
2465;DHT22;1244;54.326;10.074;2023-01-01T06:31:48;12.30;99.90
2465;DHT22;1244;54.326;10.074;2023-01-01T06:34:14;12.20;99.90
2465;DHT22;1244;54.326;10.074;2023-01-01T06:36:39;12.20;99.90
2465;DHT22;1244;54.326;10.074;2023-01-01T06:39:05;12.20;99.90
2465;DHT22;1244;54.326;10.074;2023-01-01T06:41:30;12.20;99.90
2465;DHT22;1244;54.326;10.074;2023-01-01T06:43:57;12.30;99.90
2465;DHT22;1244;54.326;10.074;2023-01-01T06:46:25;12.20;99.90
2465;DHT22;1244;54.326;10.074;2023-01-01T06:48:56;12.20;99.90
2465;DHT22;1244;54.326;10.074;2023-01-01T06:51:24;12.10;99.90
2465;DHT22;1244;54.326;10.074;2023-01-01T06:53:51;12.00;99.90
2465;DHT22;1244;54.326;10.074;2023-01-01T06:56:17;12.00;99.90
2465;DHT22;1244;54.326;10.074;2023-01-01T06:58:43;11.90;99.90
2465;DHT22;1244;54.326;10.074;2023-01-01T07:03:40;11.80;99.90
2465;DHT22;1244;54.326;10.074;2023-01-01T07:06:07;11.80;99.90
2465;DHT22;1244;54.326;10.074;2023-01-01T07:08:33;11.80;99.90
2465;DHT22;1244;54.326;10.074;2023-01-01T07:10:58;11.80;99.90
2465;DHT22;1244;54.326;10.074;2023-01-01T07:13:25;11.80;99.90
2465;DHT22;1244;54.326;10.074;2023-01-01T07:15:51;11.90;99.90
2465;DHT22;1244;54.326;10.074;2023-01-01T07:18:21;11.80;99.90
2465;DHT22;1244;54.326;10.074;2023-01-01T07:20:54;11.80;99.90
2465;DHT22;1244;54.326;10.074;2023-01-01T07:23:21;11.80;99.90
2465;DHT22;1244;54.326;10.074;2023-01-01T07:25:48;11.90;99.90
2465;DHT22;1244;54.326;10.074;2023-01-01T07:28:13;11.90;99.90
2465;DHT22;1244;54.326;10.074;2023-01-01T07:30:39;12.00;99.90
2465;DHT22;1244;54.326;10.074;2023-01-01T07:33:04;11.90;99.90
2465;DHT22;1244;54.326;10.074;2023-01-01T07:35:30;12.00;99.90
2465;DHT22;1244;54.326;10.074;2023-01-01T07:37:55;12.00;99.90
2465;DHT22;1244;54.326;10.074;2023-01-01T07:40:21;12.00;99.90
2465;DHT22;1244;54.326;10.074;2023-01-01T07:42:46;12.00;99.90
2465;DHT22;1244;54.326;10.074;2023-01-01T07:45:12;12.00;99.90
2465;DHT22;1244;54.326;10.074;2023-01-01T07:47:38;12.00;99.90
2465;DHT22;1244;54.326;10.074;2023-01-01T07:50:04;12.10;99.90
2465;DHT22;1244;54.326;10.074;2023-01-01T07:52:29;12.10;99.90
2465;DHT22;1244;54.326;10.074;2023-01-01T07:54:55;12.10;99.90
2465;DHT22;1244;54.326;10.074;2023-01-01T07:57:21;12.20;99.90
2465;DHT22;1244;54.326;10.074;2023-01-01T07:59:46;12.20;99.90
2465;DHT22;1244;54.326;10.074;2023-01-01T08:02:12;12.30;99.90
2465;DHT22;1244;54.326;10.074;2023-01-01T08:04:38;12.30;99.90
2465;DHT22;1244;54.326;10.074;2023-01-01T08:07:03;12.30;99.90
2465;DHT22;1244;54.326;10.074;2023-01-01T08:09:29;12.20;99.90
2465;DHT22;1244;54.326;10.074;2023-01-01T08:11:54;12.20;99.90
2465;DHT22;1244;54.326;10.074;2023-01-01T08:14:23;12.30;99.90
2465;DHT22;1244;54.326;10.074;2023-01-01T08:16:50;12.30;99.90
2465;DHT22;1244;54.326;10.074;2023-01-01T08:19:16;12.30;99.90
2465;DHT22;1244;54.326;10.074;2023-01-01T08:21:41;12.20;99.90
2465;DHT22;1244;54.326;10.074;2023-01-01T08:24:07;12.20;99.90
2465;DHT22;1244;54.326;10.074;2023-01-01T08:26:35;12.20;99.90
2465;DHT22;1244;54.326;10.074;2023-01-01T08:29:05;12.20;99.90
2465;DHT22;1244;54.326;10.074;2023-01-01T08:31:31;12.20;99.90
2465;DHT22;1244;54.326;10.074;2023-01-01T08:33:57;12.10;99.90
2465;DHT22;1244;54.326;10.074;2023-01-01T08:36:22;12.20;99.90
2465;DHT22;1244;54.326;10.074;2023-01-01T08:38:48;12.20;99.90
2465;DHT22;1244;54.326;10.074;2023-01-01T08:41:13;12.20;99.90
2465;DHT22;1244;54.326;10.074;2023-01-01T08:43:39;12.30;99.90
2465;DHT22;1244;54.326;10.074;2023-01-01T08:46:04;12.20;99.90
2465;DHT22;1244;54.326;10.074;2023-01-01T08:48:30;12.20;99.90
2465;DHT22;1244;54.326;10.074;2023-01-01T08:50:57;12.20;99.90
2465;DHT22;1244;54.326;10.074;2023-01-01T08:53:28;12.30;99.90
2465;DHT22;1244;54.326;10.074;2023-01-01T08:55:57;12.20;99.90
2465;DHT22;1244;54.326;10.074;2023-01-01T08:58:25;12.30;99.90
2465;DHT22;1244;54.326;10.074;2023-01-01T09:00:51;12.30;99.90
2465;DHT22;1244;54.326;10.074;2023-01-01T09:03:16;12.30;99.90
2465;DHT22;1244;54.326;10.074;2023-01-01T09:05:42;12.30;99.90
2465;DHT22;1244;54.326;10.074;2023-01-01T09:08:13;12.30;99.90
2465;DHT22;1244;54.326;10.074;2023-01-01T09:10:40;12.30;99.90
2465;DHT22;1244;54.326;10.074;2023-01-01T09:13:08;12.30;99.90
2465;DHT22;1244;54.326;10.074;2023-01-01T09:15:33;12.30;99.90
2465;DHT22;1244;54.326;10.074;2023-01-01T09:17:59;12.40;99.90
2465;DHT22;1244;54.326;10.074;2023-01-01T09:20:24;12.40;99.90
2465;DHT22;1244;54.326;10.074;2023-01-01T09:22:50;12.40;99.90
2465;DHT22;1244;54.326;10.074;2023-01-01T09:25:16;12.50;99.90
2465;DHT22;1244;54.326;10.074;2023-01-01T09:27:41;12.50;99.90
2465;DHT22;1244;54.326;10.074;2023-01-01T09:30:07;12.50;99.90
2465;DHT22;1244;54.326;10.074;2023-01-01T09:32:33;12.40;99.90
2465;DHT22;1244;54.326;10.074;2023-01-01T09:34:58;12.40;99.90
2465;DHT22;1244;54.326;10.074;2023-01-01T09:37:25;12.30;99.90
2465;DHT22;1244;54.326;10.074;2023-01-01T09:39:51;12.30;99.90
2465;DHT22;1244;54.326;10.074;2023-01-01T09:47:26;12.30;99.90
2465;DHT22;1244;54.326;10.074;2023-01-01T09:49:57;12.30;99.90
2465;DHT22;1244;54.326;10.074;2023-01-01T09:52:31;12.30;99.90
2465;DHT22;1244;54.326;10.074;2023-01-01T09:55:03;12.30;99.90
2465;DHT22;1244;54.326;10.074;2023-01-01T09:57:31;12.30;99.90
2465;DHT22;1244;54.326;10.074;2023-01-01T09:59:57;12.30;99.90
2465;DHT22;1244;54.326;10.074;2023-01-01T10:05:32;12.20;99.90
2465;DHT22;1244;54.326;10.074;2023-01-01T10:08:22;12.20;99.90
2465;DHT22;1244;54.326;10.074;2023-01-01T10:11:08;12.10;99.90
2465;DHT22;1244;54.326;10.074;2023-01-01T10:13:46;12.00;99.90
2465;DHT22;1244;54.326;10.074;2023-01-01T10:16:38;12.00;99.90
2465;DHT22;1244;54.326;10.074;2023-01-01T10:22:06;11.90;99.90
2465;DHT22;1244;54.326;10.074;2023-01-01T10:24:44;11.90;99.90
2465;DHT22;1244;54.326;10.074;2023-01-01T10:27:40;11.90;99.90
2465;DHT22;1244;54.326;10.074;2023-01-01T10:30:20;11.90;99.90
2465;DHT22;1244;54.326;10.074;2023-01-01T10:32:47;11.90;99.90
2465;DHT22;1244;54.326;10.074;2023-01-01T10:35:19;11.80;99.90
2465;DHT22;1244;54.326;10.074;2023-01-01T10:37:44;11.90;99.90
2465;DHT22;1244;54.326;10.074;2023-01-01T10:40:19;11.80;99.90
2465;DHT22;1244;54.326;10.074;2023-01-01T10:42:48;11.90;99.90
2465;DHT22;1244;54.326;10.074;2023-01-01T10:45:15;11.80;99.90
2465;DHT22;1244;54.326;10.074;2023-01-01T10:48:08;11.80;99.90
2465;DHT22;1244;54.326;10.074;2023-01-01T10:50:44;11.80;99.90
2465;DHT22;1244;54.326;10.074;2023-01-01T10:56:15;11.80;99.90
2465;DHT22;1244;54.326;10.074;2023-01-01T10:58:48;11.80;99.90
2465;DHT22;1244;54.326;10.074;2023-01-01T11:06:41;11.90;99.90
2465;DHT22;1244;54.326;10.074;2023-01-01T11:09:28;11.90;99.90
2465;DHT22;1244;54.326;10.074;2023-01-01T11:11:58;11.90;99.90
2465;DHT22;1244;54.326;10.074;2023-01-01T11:14:31;12.00;99.90
2465;DHT22;1244;54.326;10.074;2023-01-01T11:17:01;11.90;99.90
2465;DHT22;1244;54.326;10.074;2023-01-01T11:19:30;11.90;99.90
2465;DHT22;1244;54.326;10.074;2023-01-01T11:21:57;11.90;99.90
2465;DHT22;1244;54.326;10.074;2023-01-01T11:24:34;12.00;99.90
2465;DHT22;1244;54.326;10.074;2023-01-01T11:27:22;12.00;99.90
2465;DHT22;1244;54.326;10.074;2023-01-01T11:29:49;12.00;99.90
2465;DHT22;1244;54.326;10.074;2023-01-01T11:32:22;12.00;99.90
2465;DHT22;1244;54.326;10.074;2023-01-01T11:34:58;12.00;99.90
2465;DHT22;1244;54.326;10.074;2023-01-01T11:37:33;11.90;99.90
2465;DHT22;1244;54.326;10.074;2023-01-01T11:40:01;12.00;99.90
2465;DHT22;1244;54.326;10.074;2023-01-01T11:42:30;12.00;99.90
2465;DHT22;1244;54.326;10.074;2023-01-01T11:45:13;11.90;99.90
2465;DHT22;1244;54.326;10.074;2023-01-01T11:47:42;12.00;99.90
2465;DHT22;1244;54.326;10.074;2023-01-01T11:50:23;11.90;99.90
2465;DHT22;1244;54.326;10.074;2023-01-01T11:52:51;12.00;99.90
2465;DHT22;1244;54.326;10.074;2023-01-01T11:58:10;12.20;99.90
2465;DHT22;1244;54.326;10.074;2023-01-01T12:00:38;12.30;99.90
2465;DHT22;1244;54.326;10.074;2023-01-01T12:03:15;12.80;99.90
2465;DHT22;1244;54.326;10.074;2023-01-01T12:08:25;13.30;99.90
2465;DHT22;1244;54.326;10.074;2023-01-01T12:13:52;13.00;99.90
2465;DHT22;1244;54.326;10.074;2023-01-01T12:16:23;13.10;99.90
2465;DHT22;1244;54.326;10.074;2023-01-01T12:19:23;13.10;99.90
2465;DHT22;1244;54.326;10.074;2023-01-01T12:21:55;12.50;99.90
2465;DHT22;1244;54.326;10.074;2023-01-01T12:24:22;12.90;99.90
2465;DHT22;1244;54.326;10.074;2023-01-01T12:27:11;12.90;99.90
2465;DHT22;1244;54.326;10.074;2023-01-01T12:35:52;13.00;99.90
2465;DHT22;1244;54.326;10.074;2023-01-01T12:46:48;13.00;99.90
2465;DHT22;1244;54.326;10.074;2023-01-01T13:00:27;12.80;99.90
2465;DHT22;1244;54.326;10.074;2023-01-01T13:02:58;12.80;99.90
2465;DHT22;1244;54.326;10.074;2023-01-01T13:05:37;13.00;99.90
2465;DHT22;1244;54.326;10.074;2023-01-01T13:08:05;12.80;99.90
2465;DHT22;1244;54.326;10.074;2023-01-01T13:10:33;12.80;99.90
2465;DHT22;1244;54.326;10.074;2023-01-01T13:13:00;12.50;99.90
2465;DHT22;1244;54.326;10.074;2023-01-01T13:18:06;12.60;99.90
2465;DHT22;1244;54.326;10.074;2023-01-01T13:20:35;12.40;99.90
2465;DHT22;1244;54.326;10.074;2023-01-01T13:23:03;12.30;99.90
2465;DHT22;1244;54.326;10.074;2023-01-01T13:25:29;12.30;99.90
2465;DHT22;1244;54.326;10.074;2023-01-01T13:33:25;12.60;99.90
2465;DHT22;1244;54.326;10.074;2023-01-01T13:38:54;12.20;99.90
2465;DHT22;1244;54.326;10.074;2023-01-01T13:41:32;12.10;99.90
2465;DHT22;1244;54.326;10.074;2023-01-01T13:49:37;12.00;99.90
2465;DHT22;1244;54.326;10.074;2023-01-01T13:58:00;11.90;99.90
2465;DHT22;1244;54.326;10.074;2023-01-01T14:03:28;12.00;99.90
2465;DHT22;1244;54.326;10.074;2023-01-01T14:05:59;11.90;99.90
2465;DHT22;1244;54.326;10.074;2023-01-01T14:08:34;11.90;99.90
2465;DHT22;1244;54.326;10.074;2023-01-01T14:11:01;11.90;99.90
2465;DHT22;1244;54.326;10.074;2023-01-01T14:13:28;11.90;99.90
2465;DHT22;1244;54.326;10.074;2023-01-01T14:16:01;11.80;99.90
2465;DHT22;1244;54.326;10.074;2023-01-01T14:18:33;11.80;99.90
2465;DHT22;1244;54.326;10.074;2023-01-01T14:21:00;11.80;99.90
2465;DHT22;1244;54.326;10.074;2023-01-01T14:23:33;11.80;99.90
2465;DHT22;1244;54.326;10.074;2023-01-01T14:26:01;11.80;99.90
2465;DHT22;1244;54.326;10.074;2023-01-01T14:28:32;11.80;99.90
2465;DHT22;1244;54.326;10.074;2023-01-01T14:30:59;11.70;99.90
2465;DHT22;1244;54.326;10.074;2023-01-01T14:33:29;11.70;99.90
2465;DHT22;1244;54.326;10.074;2023-01-01T14:35:57;11.70;99.90
2465;DHT22;1244;54.326;10.074;2023-01-01T14:38:30;11.70;99.90
2465;DHT22;1244;54.326;10.074;2023-01-01T14:43:44;11.60;99.90
2465;DHT22;1244;54.326;10.074;2023-01-01T14:46:15;11.60;99.90
2465;DHT22;1244;54.326;10.074;2023-01-01T14:48:43;11.50;99.90
2465;DHT22;1244;54.326;10.074;2023-01-01T14:51:14;11.50;99.90
2465;DHT22;1244;54.326;10.074;2023-01-01T14:53:44;11.50;99.90
2465;DHT22;1244;54.326;10.074;2023-01-01T14:56:21;11.40;99.90
2465;DHT22;1244;54.326;10.074;2023-01-01T14:58:46;11.40;99.90
2465;DHT22;1244;54.326;10.074;2023-01-01T15:01:21;11.40;99.90
2465;DHT22;1244;54.326;10.074;2023-01-01T15:04:01;11.30;99.90
2465;DHT22;1244;54.326;10.074;2023-01-01T15:06:27;11.30;99.90
2465;DHT22;1244;54.326;10.074;2023-01-01T15:08:53;11.20;99.90
2465;DHT22;1244;54.326;10.074;2023-01-01T15:11:20;11.20;99.90
2465;DHT22;1244;54.326;10.074;2023-01-01T15:17:07;11.20;99.90
2465;DHT22;1244;54.326;10.074;2023-01-01T15:19:33;11.20;99.90
2465;DHT22;1244;54.326;10.074;2023-01-01T15:22:00;11.20;99.90
2465;DHT22;1244;54.326;10.074;2023-01-01T15:24:26;11.20;99.90
2465;DHT22;1244;54.326;10.074;2023-01-01T15:26:56;11.20;99.90
2465;DHT22;1244;54.326;10.074;2023-01-01T15:29:35;11.30;99.90
2465;DHT22;1244;54.326;10.074;2023-01-01T15:32:08;11.20;99.90
2465;DHT22;1244;54.326;10.074;2023-01-01T15:34:41;11.30;99.90
2465;DHT22;1244;54.326;10.074;2023-01-01T15:39:52;11.30;99.90
2465;DHT22;1244;54.326;10.074;2023-01-01T15:42:36;11.30;99.90
2465;DHT22;1244;54.326;10.074;2023-01-01T15:47:54;11.20;99.90
2465;DHT22;1244;54.326;10.074;2023-01-01T15:50:23;11.20;99.90
2465;DHT22;1244;54.326;10.074;2023-01-01T15:52:58;11.10;99.90
2465;DHT22;1244;54.326;10.074;2023-01-01T15:55:30;11.10;99.90
2465;DHT22;1244;54.326;10.074;2023-01-01T15:57:58;11.00;99.90
2465;DHT22;1244;54.326;10.074;2023-01-01T16:00:27;11.00;99.90
2465;DHT22;1244;54.326;10.074;2023-01-01T16:02:57;11.00;99.90
2465;DHT22;1244;54.326;10.074;2023-01-01T16:05:26;11.00;99.90
2465;DHT22;1244;54.326;10.074;2023-01-01T16:08:01;10.90;99.90
2465;DHT22;1244;54.326;10.074;2023-01-01T16:10:30;11.00;99.90
2465;DHT22;1244;54.326;10.074;2023-01-01T16:12:56;11.00;99.90
2465;DHT22;1244;54.326;10.074;2023-01-01T16:15:23;10.90;99.90
2465;DHT22;1244;54.326;10.074;2023-01-01T16:17:48;10.90;99.90
2465;DHT22;1244;54.326;10.074;2023-01-01T16:20:17;10.90;99.90
2465;DHT22;1244;54.326;10.074;2023-01-01T16:22:44;10.90;99.90
2465;DHT22;1244;54.326;10.074;2023-01-01T16:25:14;10.90;99.90
2465;DHT22;1244;54.326;10.074;2023-01-01T16:27:41;10.80;99.90
2465;DHT22;1244;54.326;10.074;2023-01-01T16:30:07;10.80;99.90
2465;DHT22;1244;54.326;10.074;2023-01-01T16:32:32;10.70;99.90
2465;DHT22;1244;54.326;10.074;2023-01-01T16:34:58;10.70;99.90
2465;DHT22;1244;54.326;10.074;2023-01-01T16:37:23;10.80;99.90
2465;DHT22;1244;54.326;10.074;2023-01-01T16:39:49;10.80;99.90
2465;DHT22;1244;54.326;10.074;2023-01-01T16:42:14;10.80;99.90
2465;DHT22;1244;54.326;10.074;2023-01-01T16:44:40;10.80;99.90
2465;DHT22;1244;54.326;10.074;2023-01-01T16:47:06;10.80;99.90
2465;DHT22;1244;54.326;10.074;2023-01-01T16:49:31;10.80;99.90
2465;DHT22;1244;54.326;10.074;2023-01-01T16:51:57;10.80;99.90
2465;DHT22;1244;54.326;10.074;2023-01-01T16:54:22;10.70;99.90
2465;DHT22;1244;54.326;10.074;2023-01-01T16:56:48;10.80;99.90
2465;DHT22;1244;54.326;10.074;2023-01-01T16:59:14;10.70;99.90
2465;DHT22;1244;54.326;10.074;2023-01-01T17:01:39;10.70;99.90
2465;DHT22;1244;54.326;10.074;2023-01-01T17:04:05;10.70;99.90
2465;DHT22;1244;54.326;10.074;2023-01-01T17:06:31;10.70;99.90
2465;DHT22;1244;54.326;10.074;2023-01-01T17:08:58;10.70;99.90
2465;DHT22;1244;54.326;10.074;2023-01-01T17:11:24;10.70;99.90
2465;DHT22;1244;54.326;10.074;2023-01-01T17:13:50;10.70;99.90
2465;DHT22;1244;54.326;10.074;2023-01-01T17:16:17;10.70;99.90
2465;DHT22;1244;54.326;10.074;2023-01-01T17:18:48;10.70;99.90
2465;DHT22;1244;54.326;10.074;2023-01-01T17:21:14;10.70;99.90
2465;DHT22;1244;54.326;10.074;2023-01-01T17:23:40;10.70;99.90
2465;DHT22;1244;54.326;10.074;2023-01-01T17:26:08;10.70;99.90
2465;DHT22;1244;54.326;10.074;2023-01-01T17:28:34;10.60;99.90
2465;DHT22;1244;54.326;10.074;2023-01-01T17:31:05;10.60;99.90
2465;DHT22;1244;54.326;10.074;2023-01-01T17:33:31;10.60;99.90
2465;DHT22;1244;54.326;10.074;2023-01-01T17:35:57;10.60;99.90
2465;DHT22;1244;54.326;10.074;2023-01-01T17:38:22;10.50;99.90
2465;DHT22;1244;54.326;10.074;2023-01-01T17:40:48;10.50;99.90
2465;DHT22;1244;54.326;10.074;2023-01-01T17:43:13;10.40;99.90